Time;durP1;ratioP1;P1;durP2;ratioP2;P2;SDS_P1;SDS_P2;PMS_P1;PMS_P2;Temp;Humidity;BMP_temperature;BMP_pressure;BME280_temperature;BME280_humidity;BME280_pressure;Samples;Min_cycle;Max_cycle;Signal;HPM_P1;HPM_P2
2022/08/27 00:02:20;;;;;;;6.35;1.80;;;17.40;99.90;;;;;;5054636;28;20450;-69
2022/08/27 00:04:46;;;;;;;5.68;1.70;;;17.30;99.90;;;;;;5054542;28;20120;-69
2022/08/27 00:07:13;;;;;;;5.70;1.90;;;17.40;99.90;;;;;;5054418;28;20582;-69
2022/08/27 00:09:39;;;;;;;10.18;2.08;;;17.30;99.90;;;;;;5053740;28;20048;-69
2022/08/27 00:12:07;;;;;;;5.20;1.70;;;17.40;99.90;;;;;;5054321;28;20065;-69
2022/08/27 00:14:33;;;;;;;6.78;1.92;;;17.30;99.90;;;;;;5053985;28;20406;-70
2022/08/27 00:16:59;;;;;;;3.65;1.23;;;17.30;99.90;;;;;;5054412;28;20037;-69
2022/08/27 00:19:25;;;;;;;4.57;1.65;;;17.30;99.90;;;;;;5053912;28;20044;-69
2022/08/27 00:21:50;;;;;;;5.32;1.40;;;17.10;99.90;;;;;;5054225;28;20041;-69
2022/08/27 00:24:16;;;;;;;2.05;1.30;;;17.20;99.90;;;;;;5053336;28;20103;-69
2022/08/27 00:26:42;;;;;;;7.57;1.80;;;17.10;99.90;;;;;;5054037;28;20084;-69
2022/08/27 00:29:08;;;;;;;6.35;1.52;;;17.00;99.90;;;;;;5053709;28;20037;-69
2022/08/27 00:31:34;;;;;;;4.18;1.60;;;17.00;99.90;;;;;;5053861;28;20106;-69
2022/08/27 00:34:00;;;;;;;8.45;1.45;;;17.00;99.90;;;;;;5053885;28;20033;-69
2022/08/27 00:36:26;;;;;;;6.97;1.63;;;17.00;99.90;;;;;;5053742;28;20037;-69
2022/08/27 00:38:52;;;;;;;4.20;1.50;;;16.90;99.90;;;;;;5053705;28;20037;-69
2022/08/27 00:41:19;;;;;;;5.45;2.10;;;16.90;99.90;;;;;;5053463;28;20080;-69
2022/08/27 00:43:49;;;;;;;5.63;1.70;;;16.90;99.90;;;;;;5053611;28;20487;-69
2022/08/27 00:46:31;;;;;;;5.97;1.63;;;16.80;99.90;;;;;;5053641;28;20041;-70
2022/08/27 00:49:10;;;;;;;3.75;1.33;;;16.90;99.90;;;;;;5053578;28;20037;-69
2022/08/27 00:51:37;;;;;;;4.55;1.70;;;16.90;99.90;;;;;;5053434;28;20108;-70
2022/08/27 00:54:04;;;;;;;5.65;1.65;;;17.00;99.90;;;;;;5053329;28;20048;-69
2022/08/27 00:56:38;;;;;;;7.47;1.83;;;16.80;99.90;;;;;;5053665;28;20080;-69
2022/08/27 00:59:04;;;;;;;6.80;1.98;;;16.90;99.90;;;;;;5053255;28;20098;-69
2022/08/27 01:01:32;;;;;;;4.13;1.70;;;16.90;99.90;;;;;;5053190;28;20490;-69
2022/08/27 01:04:02;;;;;;;6.65;1.60;;;16.90;99.90;;;;;;5053260;28;20040;-70
2022/08/27 01:06:32;;;;;;;4.45;1.58;;;16.80;99.90;;;;;;5053181;28;20502;-70
2022/08/27 01:09:04;;;;;;;3.92;1.85;;;16.80;99.90;;;;;;5051920;28;20449;-70
2022/08/27 01:11:30;;;;;;;5.47;1.80;;;17.00;99.90;;;;;;5053242;28;20411;-70
2022/08/27 01:13:56;;;;;;;5.80;1.38;;;16.90;99.90;;;;;;5053272;28;20051;-70
2022/08/27 01:16:27;;;;;;;3.30;1.58;;;16.80;99.90;;;;;;5053316;28;20116;-70
2022/08/27 01:18:54;;;;;;;5.78;1.88;;;16.90;99.90;;;;;;5053017;28;20116;-69
2022/08/27 01:21:44;;;;;;;5.60;1.50;;;16.90;99.90;;;;;;5052841;28;20404;-70
2022/08/27 01:24:21;;;;;;;4.43;1.48;;;16.90;99.90;;;;;;5053308;28;20051;-69
2022/08/27 01:26:48;;;;;;;3.50;1.30;;;16.90;99.90;;;;;;5053129;28;20087;-70
2022/08/27 01:29:14;;;;;;;5.70;1.55;;;16.80;99.90;;;;;;5052620;28;20041;-69
2022/08/27 01:31:40;;;;;;;10.13;1.60;;;16.80;99.90;;;;;;5052640;28;20102;-69
2022/08/27 01:34:05;;;;;;;5.15;1.83;;;16.70;99.90;;;;;;5052609;28;20045;-69
2022/08/27 01:36:32;;;;;;;8.13;1.60;;;16.80;99.90;;;;;;5051564;28;20045;-69
2022/08/27 01:38:58;;;;;;;5.05;1.38;;;16.60;99.90;;;;;;5052713;28;20033;-69
2022/08/27 01:41:25;;;;;;;4.03;2.17;;;16.70;99.90;;;;;;5052332;28;20041;-69
2022/08/27 01:43:50;;;;;;;4.85;1.73;;;16.70;99.90;;;;;;5052602;28;20051;-69
2022/08/27 01:46:22;;;;;;;6.78;2.28;;;16.60;99.90;;;;;;5051364;28;20120;-69
2022/08/27 01:48:47;;;;;;;5.72;1.90;;;16.60;99.90;;;;;;5051296;28;20429;-71
2022/08/27 01:51:13;;;;;;;5.65;2.10;;;16.60;99.90;;;;;;5052275;28;20127;-71
2022/08/27 01:53:38;;;;;;;5.68;1.90;;;16.50;99.90;;;;;;5051027;28;20036;-72
2022/08/27 01:56:04;;;;;;;6.53;2.38;;;16.30;99.90;;;;;;5052320;28;20036;-71
2022/08/27 01:58:31;;;;;;;6.95;2.13;;;16.30;99.90;;;;;;5050939;28;20119;-71
2022/08/27 02:01:01;;;;;;;7.93;3.33;;;16.30;99.90;;;;;;5050586;28;20055;-71
2022/08/27 02:03:27;;;;;;;7.88;2.60;;;16.30;99.90;;;;;;5050972;28;20069;-72
2022/08/27 02:05:53;;;;;;;4.88;2.10;;;16.30;99.90;;;;;;5052265;28;20060;-71
2022/08/27 02:08:19;;;;;;;3.97;1.90;;;16.30;99.90;;;;;;5052063;28;20107;-69
2022/08/27 02:10:47;;;;;;;9.25;1.90;;;16.40;99.90;;;;;;5051859;28;20048;-69
2022/08/27 02:13:13;;;;;;;4.20;2.05;;;16.40;99.90;;;;;;5052001;28;20041;-69
2022/08/27 02:15:41;;;;;;;6.85;1.90;;;16.30;99.90;;;;;;5052127;28;20584;-69
2022/08/27 02:18:08;;;;;;;4.55;1.73;;;16.30;99.90;;;;;;5052018;28;20090;-69
2022/08/27 02:20:34;;;;;;;6.97;1.65;;;16.30;99.90;;;;;;5051772;28;20120;-70
2022/08/27 02:23:00;;;;;;;5.43;2.10;;;16.30;99.90;;;;;;5051927;28;20036;-69
2022/08/27 02:25:27;;;;;;;4.45;1.73;;;16.30;99.90;;;;;;5051863;28;20044;-70
2022/08/27 02:27:53;;;;;;;5.97;1.77;;;16.10;99.90;;;;;;5051645;28;20048;-69
2022/08/27 02:30:21;;;;;;;4.03;1.60;;;16.20;99.90;;;;;;5051678;28;20040;-69
2022/08/27 02:32:47;;;;;;;5.35;2.95;;;16.20;99.90;;;;;;5051658;28;20517;-69
2022/08/27 02:35:14;;;;;;;4.57;2.05;;;16.20;99.90;;;;;;5051769;28;20037;-69
2022/08/27 02:37:40;;;;;;;5.85;1.70;;;16.10;99.90;;;;;;5051587;28;20045;-69
2022/08/27 02:40:07;;;;;;;4.50;2.20;;;16.10;99.90;;;;;;5051492;28;20048;-69
2022/08/27 02:42:33;;;;;;;7.32;2.28;;;16.00;99.90;;;;;;5051321;28;20044;-69
2022/08/27 02:44:59;;;;;;;7.97;2.08;;;16.00;99.90;;;;;;5051808;28;20059;-69
2022/08/27 02:47:24;;;;;;;5.80;2.35;;;16.00;99.90;;;;;;5051228;28;20076;-69
2022/08/27 02:49:50;;;;;;;3.83;2.00;;;16.00;99.90;;;;;;5051374;28;20041;-69
2022/08/27 02:52:16;;;;;;;5.05;1.80;;;15.90;99.90;;;;;;5051664;28;20593;-69
2022/08/27 02:54:43;;;;;;;8.43;2.15;;;15.90;99.90;;;;;;5051413;28;20045;-69
2022/08/27 02:57:08;;;;;;;9.02;2.45;;;16.00;99.90;;;;;;5051388;28;20410;-69
2022/08/27 02:59:34;;;;;;;6.15;1.77;;;16.00;99.90;;;;;;5051303;28;20041;-69
2022/08/27 03:02:00;;;;;;;5.38;2.25;;;15.90;99.90;;;;;;5051566;28;20120;-69
2022/08/27 03:04:26;;;;;;;6.75;2.38;;;16.00;99.90;;;;;;5051525;28;20043;-69
2022/08/27 03:06:53;;;;;;;2.78;1.73;;;16.00;99.90;;;;;;5051512;28;20052;-69
2022/08/27 03:09:19;;;;;;;6.60;2.20;;;16.10;99.90;;;;;;5050885;28;20037;-69
2022/08/27 03:11:44;;;;;;;6.65;2.30;;;16.00;99.90;;;;;;5051355;28;20037;-71
2022/08/27 03:14:11;;;;;;;6.43;2.20;;;16.10;99.90;;;;;;5051485;28;20085;-71
2022/08/27 03:16:37;;;;;;;3.83;1.80;;;16.00;99.90;;;;;;5051383;28;20041;-71
2022/08/27 03:19:07;;;;;;;5.38;1.83;;;16.10;99.90;;;;;;5051312;28;20387;-69
2022/08/27 03:21:34;;;;;;;4.78;2.03;;;16.10;99.90;;;;;;5051045;28;20045;-72
2022/08/27 03:24:00;;;;;;;6.43;2.20;;;16.10;99.90;;;;;;5051144;28;20410;-71
2022/08/27 03:26:27;;;;;;;6.60;2.70;;;16.00;99.90;;;;;;5051110;28;20044;-71
2022/08/27 03:28:53;;;;;;;3.53;1.85;;;15.90;99.90;;;;;;5051105;28;20037;-71
2022/08/27 03:31:25;;;;;;;6.13;1.95;;;16.00;99.90;;;;;;5050888;28;20071;-72
2022/08/27 03:34:03;;;;;;;7.17;2.83;;;15.90;99.90;;;;;;5044707;28;20080;-72
2022/08/27 03:36:30;;;;;;;6.35;2.35;;;15.90;99.90;;;;;;5051091;28;20029;-71
2022/08/27 03:38:56;;;;;;;4.70;1.95;;;15.90;99.90;;;;;;5050738;28;20044;-71
2022/08/27 03:41:22;;;;;;;6.80;1.92;;;15.90;99.90;;;;;;5050757;28;20029;-71
2022/08/27 03:43:51;;;;;;;4.45;1.92;;;15.90;99.90;;;;;;5050926;28;20491;-71
2022/08/27 03:46:18;;;;;;;3.97;1.75;;;15.90;99.90;;;;;;5050974;28;20526;-72
2022/08/27 03:48:44;;;;;;;5.47;2.20;;;16.00;99.90;;;;;;5051280;28;20072;-71
2022/08/27 03:51:12;;;;;;;4.65;1.65;;;15.80;99.90;;;;;;5050481;28;20435;-71
2022/08/27 03:53:40;;;;;;;4.53;1.60;;;15.80;99.90;;;;;;5051067;28;20436;-71
2022/08/27 03:56:07;;;;;;;8.93;2.75;;;15.90;99.90;;;;;;5051139;28;20036;-71
2022/08/27 03:58:34;;;;;;;3.65;1.70;;;16.00;99.90;;;;;;5050867;28;20397;-71
2022/08/27 04:01:00;;;;;;;4.40;1.60;;;16.00;99.90;;;;;;5053232;28;20041;-71
2022/08/27 04:03:26;;;;;;;4.53;1.67;;;15.90;99.90;;;;;;5053332;28;20457;-72
2022/08/27 04:05:56;;;;;;;4.90;1.70;;;15.80;99.90;;;;;;5054360;28;20048;-71
2022/08/27 04:08:23;;;;;;;3.20;2.08;;;15.90;99.90;;;;;;5052996;28;20037;-71
2022/08/27 04:10:48;;;;;;;4.03;1.92;;;15.80;99.90;;;;;;5053939;28;20037;-71
2022/08/27 04:13:16;;;;;;;4.75;1.85;;;15.80;99.90;;;;;;5054405;28;20033;-71
2022/08/27 04:15:46;;;;;;;5.15;1.90;;;15.80;99.90;;;;;;5052912;28;20053;-71
2022/08/27 04:18:15;;;;;;;5.40;2.00;;;15.90;99.90;;;;;;5036456;28;20142;-71
2022/08/27 04:20:42;;;;;;;6.50;1.80;;;16.00;99.90;;;;;;5054071;28;20041;-71
2022/08/27 04:23:08;;;;;;;5.75;2.00;;;15.90;99.90;;;;;;5054281;28;20112;-71
2022/08/27 04:25:37;;;;;;;4.97;2.30;;;15.80;99.90;;;;;;5054178;28;20502;-71
2022/08/27 04:28:02;;;;;;;4.75;1.55;;;15.80;99.90;;;;;;5053912;28;20049;-69
2022/08/27 04:30:28;;;;;;;5.72;1.83;;;15.70;99.90;;;;;;5053491;28;20406;-69
2022/08/27 04:32:54;;;;;;;4.65;1.90;;;15.60;99.90;;;;;;5053809;28;20033;-69
2022/08/27 04:35:19;;;;;;;4.28;2.00;;;15.80;99.90;;;;;;5053919;28;20073;-69
2022/08/27 04:37:45;;;;;;;9.60;2.15;;;15.60;99.90;;;;;;5053670;28;20072;-69
2022/08/27 04:40:11;;;;;;;8.00;2.00;;;15.70;99.90;;;;;;5053477;28;20037;-70
2022/08/27 04:42:36;;;;;;;7.35;2.00;;;15.60;99.90;;;;;;5053726;28;20040;-70
2022/08/27 04:45:03;;;;;;;5.50;1.85;;;15.60;99.90;;;;;;5053618;28;20036;-69
2022/08/27 04:47:29;;;;;;;3.53;1.85;;;15.70;99.90;;;;;;5053249;28;20041;-69
2022/08/27 04:49:55;;;;;;;5.47;1.80;;;15.60;99.90;;;;;;5053274;28;20045;-70
2022/08/27 04:52:21;;;;;;;5.15;1.92;;;15.70;99.90;;;;;;5053646;28;20048;-69
2022/08/27 04:54:46;;;;;;;5.82;1.90;;;15.50;99.90;;;;;;5053481;28;20041;-69
2022/08/27 04:57:12;;;;;;;5.05;1.98;;;15.60;99.90;;;;;;5053481;28;20119;-69
2022/08/27 04:59:38;;;;;;;4.68;1.90;;;15.60;99.90;;;;;;5052941;28;20083;-69
2022/08/27 05:02:08;;;;;;;7.20;1.85;;;15.50;99.90;;;;;;5053272;28;20064;-69
2022/08/27 05:04:36;;;;;;;6.40;1.80;;;15.60;99.90;;;;;;5053495;28;20045;-69
2022/08/27 05:07:02;;;;;;;5.40;2.35;;;15.60;99.90;;;;;;5053284;28;20055;-69
2022/08/27 05:09:28;;;;;;;4.97;2.47;;;15.60;99.90;;;;;;5052776;28;20037;-69
2022/08/27 05:11:54;;;;;;;7.15;1.88;;;15.60;99.90;;;;;;5052876;28;20117;-71
2022/08/27 05:14:21;;;;;;;6.35;2.53;;;15.50;99.90;;;;;;5052959;28;20056;-71
2022/08/27 05:16:46;;;;;;;7.43;2.65;;;15.40;99.90;;;;;;5052954;28;20043;-71
2022/08/27 05:19:13;;;;;;;6.72;2.10;;;15.60;99.90;;;;;;5052845;28;20120;-73
2022/08/27 05:21:44;;;;;;;7.07;2.22;;;15.60;99.90;;;;;;5053083;28;20052;-71
2022/08/27 05:24:10;;;;;;;4.00;1.92;;;15.70;99.90;;;;;;5052925;28;20045;-71
2022/08/27 05:26:36;;;;;;;5.82;2.28;;;16.00;99.90;;;;;;5052916;28;20123;-72
2022/08/27 05:29:03;;;;;;;4.90;1.92;;;15.90;99.90;;;;;;5052444;28;20037;-71
2022/08/27 05:31:29;;;;;;;13.48;2.38;;;16.20;99.90;;;;;;5052726;28;20115;-72
2022/08/27 05:33:55;;;;;;;7.03;2.05;;;16.40;99.90;;;;;;5052766;28;20511;-71
2022/08/27 05:36:25;;;;;;;5.30;2.00;;;16.50;99.90;;;;;;5052832;28;20094;-71
2022/08/27 05:38:52;;;;;;;6.35;1.80;;;16.80;99.90;;;;;;5052628;28;20114;-70
2022/08/27 05:41:23;;;;;;;4.47;1.83;;;17.20;99.90;;;;;;5052297;28;20108;-71
2022/08/27 05:43:49;;;;;;;2.85;1.67;;;17.40;99.90;;;;;;5052341;28;20036;-70
2022/08/27 05:46:19;;;;;;;5.43;2.08;;;17.50;99.90;;;;;;5052655;28;20033;-70
2022/08/27 05:48:44;;;;;;;4.22;1.60;;;17.70;99.90;;;;;;5052562;28;20033;-71
2022/08/27 05:51:13;;;;;;;4.63;1.80;;;18.00;99.90;;;;;;5052103;28;20040;-70
2022/08/27 05:53:39;;;;;;;3.85;1.70;;;18.10;99.90;;;;;;5052338;28;20406;-70
2022/08/27 05:56:14;;;;;;;5.82;1.73;;;18.20;99.90;;;;;;5052320;28;20041;-70
2022/08/27 06:01:25;;;;;;;6.20;1.70;;;18.50;99.90;;;;;;5052109;28;20106;-70
2022/08/27 06:03:53;;;;;;;5.68;1.55;;;18.90;99.90;;;;;;5052262;28;20495;-70
2022/08/27 06:06:19;;;;;;;7.28;1.83;;;19.10;99.90;;;;;;5052160;28;20049;-71
2022/08/27 06:08:45;;;;;;;5.80;1.60;;;19.30;99.90;;;;;;5051850;28;20040;-70
2022/08/27 06:11:10;;;;;;;7.68;1.95;;;19.50;99.90;;;;;;5051876;28;20515;-70
2022/08/27 06:13:37;;;;;;;4.25;1.30;;;19.60;99.90;;;;;;5052158;28;20067;-71
2022/08/27 06:16:08;;;;;;;6.07;1.50;;;19.80;99.90;;;;;;5052065;28;20116;-70
2022/08/27 06:18:40;;;;;;;5.55;1.55;;;20.00;99.90;;;;;;5051969;28;20108;-71
2022/08/27 06:21:07;;;;;;;3.78;1.23;;;20.20;99.90;;;;;;5051582;28;20069;-70
2022/08/27 06:23:34;;;;;;;5.22;1.60;;;20.40;99.90;;;;;;5051474;28;20094;-70
2022/08/27 06:25:59;;;;;;;4.63;2.00;;;20.50;99.90;;;;;;5051998;28;20072;-70
2022/08/27 06:28:30;;;;;;;5.68;1.52;;;20.60;99.90;;;;;;5051876;28;20079;-70
2022/08/27 06:31:07;;;;;;;4.65;1.27;;;20.80;99.90;;;;;;5051570;28;20181;-70
2022/08/27 06:33:33;;;;;;;5.68;1.45;;;20.70;99.90;;;;;;5051656;28;20064;-70
2022/08/27 06:36:00;;;;;;;5.10;1.40;;;20.60;99.90;;;;;;5051686;28;20094;-70
2022/08/27 06:38:26;;;;;;;8.20;1.90;;;20.40;99.90;;;;;;5051193;28;20036;-70
2022/08/27 06:40:52;;;;;;;9.40;2.00;;;20.30;99.90;;;;;;5051481;28;20041;-71
2022/08/27 06:43:18;;;;;;;4.88;1.90;;;20.20;99.90;;;;;;5051711;28;20037;-70
2022/08/27 06:45:44;;;;;;;3.53;1.35;;;20.00;99.90;;;;;;5051640;28;20387;-70
2022/08/27 06:48:09;;;;;;;4.35;1.63;;;20.00;99.90;;;;;;5051401;28;20037;-71
2022/08/27 06:50:39;;;;;;;6.57;2.15;;;19.70;99.90;;;;;;5051394;28;20045;-71
2022/08/27 06:53:05;;;;;;;4.95;1.45;;;19.60;99.90;;;;;;5051842;28;20037;-71
2022/08/27 06:55:32;;;;;;;7.53;1.80;;;19.50;99.90;;;;;;5051581;28;20052;-71
2022/08/27 06:57:57;;;;;;;5.38;1.35;;;19.50;99.90;;;;;;5051107;28;20041;-70
2022/08/27 07:00:24;;;;;;;6.15;1.90;;;19.60;99.90;;;;;;5050694;28;20041;-71
2022/08/27 07:02:49;;;;;;;6.85;1.73;;;19.40;99.90;;;;;;5051148;28;20039;-70
2022/08/27 07:05:16;;;;;;;4.28;1.30;;;19.40;99.90;;;;;;5049858;28;20041;-71
2022/08/27 07:07:41;;;;;;;5.85;1.48;;;19.40;99.90;;;;;;5051328;28;20101;-70
2022/08/27 07:10:08;;;;;;;4.35;1.42;;;19.40;99.90;;;;;;5051223;28;20120;-70
2022/08/27 07:12:33;;;;;;;6.18;2.00;;;19.50;99.90;;;;;;5051369;28;20047;-71
2022/08/27 07:14:59;;;;;;;10.25;1.83;;;19.60;99.90;;;;;;5051244;28;20442;-68
2022/08/27 07:17:24;;;;;;;3.13;1.30;;;19.60;99.90;;;;;;5050925;28;20048;-69
2022/08/27 07:19:50;;;;;;;8.50;1.85;;;19.80;99.90;;;;;;5051162;28;20056;-69
2022/08/27 07:22:15;;;;;;;4.20;1.60;;;20.20;99.90;;;;;;5051112;28;20032;-68
2022/08/27 07:24:41;;;;;;;4.18;1.88;;;20.20;99.90;;;;;;5049451;28;20106;-69
2022/08/27 07:27:07;;;;;;;6.78;1.40;;;20.10;99.90;;;;;;5051300;28;20059;-70
2022/08/27 07:29:33;;;;;;;7.13;1.70;;;20.10;99.90;;;;;;5050824;28;20443;-70
2022/08/27 07:31:58;;;;;;;7.78;1.70;;;19.70;99.90;;;;;;5051150;28;20431;-71
2022/08/27 07:34:24;;;;;;;6.18;1.48;;;19.60;99.90;;;;;;5052791;28;20115;-72
2022/08/27 07:36:50;;;;;;;6.18;1.67;;;19.50;99.90;;;;;;5054918;28;20115;-71
2022/08/27 07:39:16;;;;;;;7.47;1.40;;;19.40;99.90;;;;;;5054626;28;20048;-70
2022/08/27 07:44:26;;;;;;;6.03;1.30;;;19.30;99.90;;;;;;5053456;28;20579;-71
2022/08/27 07:46:54;;;;;;;5.57;1.38;;;19.20;99.90;;;;;;5054666;28;20137;-70
2022/08/27 07:49:21;;;;;;;4.22;1.50;;;19.20;99.90;;;;;;5054558;28;20072;-70
2022/08/27 07:51:47;;;;;;;5.53;1.35;;;19.30;99.80;;;;;;5054748;28;20060;-71
2022/08/27 07:54:13;;;;;;;4.72;1.20;;;19.30;99.70;;;;;;5053475;28;20091;-70
2022/08/27 07:56:39;;;;;;;4.32;1.40;;;19.30;99.40;;;;;;5054462;28;20045;-70
2022/08/27 07:59:05;;;;;;;7.60;2.90;;;19.30;99.20;;;;;;5054392;28;20029;-70
2022/08/27 08:01:31;;;;;;;6.65;1.80;;;19.40;98.60;;;;;;5054210;28;20410;-71
2022/08/27 08:03:56;;;;;;;7.82;1.65;;;19.30;98.30;;;;;;5054597;28;20055;-70
2022/08/27 08:06:22;;;;;;;7.22;1.63;;;19.40;98.00;;;;;;5054455;28;20041;-70
2022/08/27 08:08:47;;;;;;;2.92;1.10;;;19.30;98.10;;;;;;5054169;28;20041;-70
2022/08/27 08:11:15;;;;;;;4.95;1.50;;;19.40;97.90;;;;;;5054109;28;20494;-71
2022/08/27 08:13:42;;;;;;;7.07;1.55;;;19.40;98.20;;;;;;5054142;28;20072;-70
2022/08/27 08:16:07;;;;;;;6.68;1.83;;;19.40;98.30;;;;;;5054416;28;20108;-70
2022/08/27 08:18:36;;;;;;;7.05;1.38;;;19.40;98.60;;;;;;5054248;28;20449;-71
2022/08/27 08:21:05;;;;;;;6.32;1.88;;;19.40;98.30;;;;;;5053788;28;20517;-71
2022/08/27 08:23:31;;;;;;;4.43;1.13;;;19.30;98.20;;;;;;5054127;28;20545;-70
2022/08/27 08:25:58;;;;;;;4.68;1.52;;;19.40;98.20;;;;;;5052857;28;20037;-71
2022/08/27 08:28:24;;;;;;;7.00;1.40;;;19.50;97.80;;;;;;5053860;28;20083;-71
2022/08/27 08:30:51;;;;;;;5.93;1.75;;;19.70;97.80;;;;;;5052636;28;20095;-70
2022/08/27 08:33:17;;;;;;;5.95;1.48;;;19.70;97.50;;;;;;5053891;28;20041;-71
2022/08/27 08:35:43;;;;;;;8.63;1.67;;;19.80;97.00;;;;;;5053857;28;20446;-70
2022/08/27 08:38:08;;;;;;;6.25;1.00;;;19.90;96.80;;;;;;5053778;28;20069;-70
2022/08/27 08:40:38;;;;;;;8.13;2.22;;;19.90;96.50;;;;;;5053482;28;20415;-70
2022/08/27 08:43:08;;;;;;;7.25;1.45;;;19.90;96.10;;;;;;5053706;28;20093;-71
2022/08/27 08:45:38;;;;;;;7.38;1.30;;;19.80;95.80;;;;;;5051702;28;20057;-70
2022/08/27 08:48:10;;;;;;;7.10;1.90;;;19.90;95.60;;;;;;5053673;28;20072;-71
2022/08/27 08:51:02;;;;;;;7.95;1.50;;;20.00;95.50;;;;;;5052043;28;20129;-71
2022/08/27 08:53:39;;;;;;;5.68;1.70;;;20.10;94.90;;;;;;5052853;28;20523;-71
2022/08/27 08:56:12;;;;;;;4.97;1.50;;;20.10;95.10;;;;;;5053666;28;20498;-70
2022/08/27 08:58:58;;;;;;;5.68;1.77;;;20.30;95.40;;;;;;5053479;28;20037;-71
2022/08/27 09:01:26;;;;;;;5.50;0.82;;;20.40;95.30;;;;;;5053161;28;20087;-71
2022/08/27 09:03:59;;;;;;;5.80;1.40;;;20.30;94.60;;;;;;5053214;28;20045;-71
2022/08/27 09:06:31;;;;;;;6.28;1.60;;;20.30;94.00;;;;;;5052063;28;20037;-71
2022/08/27 09:09:05;;;;;;;7.60;1.17;;;20.30;94.10;;;;;;5053106;28;20069;-71
2022/08/27 09:11:38;;;;;;;7.45;1.40;;;20.30;94.10;;;;;;5051691;28;20407;-71
2022/08/27 09:14:32;;;;;;;7.60;1.10;;;20.30;93.70;;;;;;5053025;28;20392;-71
2022/08/27 09:17:00;;;;;;;9.75;1.70;;;20.40;92.90;;;;;;5053272;28;20037;-71
2022/08/27 09:19:26;;;;;;;6.85;1.45;;;20.40;92.60;;;;;;5052755;28;20037;-71
2022/08/27 09:22:18;;;;;;;3.92;1.13;;;20.40;92.60;;;;;;5052889;28;20292;-71
2022/08/27 09:24:54;;;;;;;7.72;1.20;;;20.20;91.90;;;;;;5047072;28;20048;-71
2022/08/27 09:27:21;;;;;;;5.72;1.30;;;20.40;92.50;;;;;;5051635;28;20052;-71
2022/08/27 09:29:53;;;;;;;7.13;1.80;;;20.70;92.10;;;;;;5051206;28;20123;-71
2022/08/27 09:32:32;;;;;;;6.20;1.30;;;21.10;92.10;;;;;;5051415;28;20084;-71
2022/08/27 09:35:01;;;;;;;9.25;1.30;;;21.20;91.80;;;;;;5052603;28;20076;-70
2022/08/27 09:37:31;;;;;;;8.00;1.30;;;21.30;91.00;;;;;;5052737;28;20033;-71
2022/08/27 09:40:10;;;;;;;5.90;1.30;;;21.30;90.40;;;;;;5050818;28;20047;-71
2022/08/27 09:42:43;;;;;;;5.72;1.10;;;21.30;90.20;;;;;;5052555;28;20624;-71
2022/08/27 09:45:36;;;;;;;7.28;1.58;;;20.90;90.00;;;;;;5052587;28;20040;-71
2022/08/27 09:48:09;;;;;;;6.75;1.42;;;20.80;90.40;;;;;;5050054;28;20072;-70
2022/08/27 09:50:51;;;;;;;6.68;1.70;;;20.70;90.40;;;;;;5052152;28;20044;-71
2022/08/27 09:53:17;;;;;;;3.92;1.10;;;20.80;90.00;;;;;;5051142;28;20040;-70
2022/08/27 09:55:47;;;;;;;3.97;1.20;;;20.40;90.40;;;;;;5052231;28;20094;-71
2022/08/27 09:58:41;;;;;;;6.65;1.40;;;20.50;90.60;;;;;;5049981;28;20510;-71
2022/08/27 10:01:17;;;;;;;8.07;2.17;;;20.70;91.40;;;;;;5036503;28;20052;-70
2022/08/27 10:03:43;;;;;;;6.15;1.30;;;20.50;91.00;;;;;;5052224;28;20090;-71
2022/08/27 10:06:10;;;;;;;9.60;2.03;;;20.60;91.10;;;;;;5050653;28;20032;-71
2022/08/27 10:08:51;;;;;;;5.88;1.50;;;20.60;91.50;;;;;;5074354;22;20048;-69
2022/08/27 10:11:27;;;;;;;10.57;1.48;;;20.50;91.10;;;;;;5050432;28;20060;-69
2022/08/27 10:14:15;;;;;;;7.80;1.30;;;20.40;90.60;;;;;;5050734;28;20053;-69
2022/08/27 10:17:00;;;;;;;4.22;1.00;;;20.40;90.50;;;;;;5052006;28;20407;-70
2022/08/27 10:19:51;;;;;;;7.53;1.40;;;20.20;90.60;;;;;;5051612;28;20041;-69
2022/08/27 10:22:31;;;;;;;11.02;1.70;;;20.20;90.30;;;;;;5051912;28;20401;-69
2022/08/27 10:25:15;;;;;;;8.50;1.33;;;20.30;90.50;;;;;;5050913;28;20051;-70
2022/08/27 10:28:28;;;;;;;5.95;1.33;;;20.50;90.80;;;;;;5050523;28;20049;-68
2022/08/27 10:31:11;;;;;;;4.40;1.05;;;20.30;90.40;;;;;;5009473;28;20073;-70
2022/08/27 10:33:49;;;;;;;;;;;20.40;90.30;;;;;;5045949;28;20049;-70
2022/08/27 10:36:35;;;;;;;5.97;1.58;;;20.30;89.30;;;;;;5033880;28;19925;-69
2022/08/27 10:39:19;;;;;;;7.10;1.80;;;20.10;89.80;;;;;;5050385;28;20048;-70
2022/08/27 10:42:20;;;;;;;6.53;1.50;;;20.20;90.70;;;;;;5051910;28;20510;-69
2022/08/27 10:45:11;;;;;;;7.20;1.30;;;20.20;91.30;;;;;;5051736;28;20072;-69
2022/08/27 10:48:08;;;;;;;4.90;1.02;;;20.20;91.60;;;;;;5051413;28;20506;-69
2022/08/27 10:50:58;;;;;;;7.07;1.67;;;20.20;92.10;;;;;;5050122;28;20159;-69
2022/08/27 10:53:49;;;;;;;7.15;1.58;;;20.20;92.20;;;;;;5051568;28;20090;-69
2022/08/27 10:56:22;;;;;;;6.40;1.42;;;20.00;91.40;;;;;;5050594;28;20045;-69
2022/08/27 10:59:16;;;;;;;7.00;1.33;;;20.00;91.30;;;;;;5051707;28;20041;-69
2022/08/27 11:02:01;;;;;;;7.32;1.60;;;19.90;90.70;;;;;;5051554;28;20391;-70
2022/08/27 11:04:48;;;;;;;5.93;1.17;;;20.00;91.00;;;;;;5050466;28;20442;-69
2022/08/27 11:07:21;;;;;;;5.90;1.50;;;20.10;91.20;;;;;;5049482;28;20501;-70
2022/08/27 11:09:58;;;;;;;5.50;1.55;;;20.20;91.10;;;;;;5052420;28;20410;-70
2022/08/27 11:12:33;;;;;;;6.75;1.35;;;20.20;91.30;;;;;;5055429;28;20590;-70
2022/08/27 11:15:03;;;;;;;6.88;1.73;;;20.20;90.70;;;;;;5054381;28;20044;-69
2022/08/27 11:17:40;;;;;;;7.18;1.48;;;20.40;90.80;;;;;;5055640;28;20457;-70
2022/08/27 11:20:19;;;;;;;5.22;1.25;;;20.50;90.80;;;;;;5053735;28;20045;-69
2022/08/27 11:23:13;;;;;;;8.05;1.35;;;20.60;92.10;;;;;;5054129;28;20033;-70
2022/08/27 11:25:58;;;;;;;4.55;1.30;;;20.40;91.90;;;;;;5055398;28;20040;-69
2022/08/27 11:28:36;;;;;;;7.25;1.38;;;20.20;91.60;;;;;;5055262;28;20041;-70
2022/08/27 11:31:04;;;;;;;8.07;1.17;;;20.10;91.40;;;;;;5054930;28;20095;-70
2022/08/27 11:33:36;;;;;;;6.28;1.08;;;20.00;91.60;;;;;;5055011;28;20045;-69
2022/08/27 11:36:52;;;;;;;10.48;2.33;;;20.10;91.40;;;;;;5053753;28;20044;-70
2022/08/27 11:39:38;;;;;;;5.80;1.02;;;20.10;89.30;;;;;;5028209;28;20056;-70
2022/08/27 11:42:26;;;;;;;7.15;1.00;;;20.20;89.00;;;;;;5053224;28;20044;-69
2022/08/27 11:45:03;;;;;;;6.75;0.95;;;20.30;87.70;;;;;;5053982;28;20120;-69
2022/08/27 11:47:29;;;;;;;6.68;0.98;;;20.30;87.70;;;;;;5055030;28;20045;-68
2022/08/27 11:50:00;;;;;;;5.85;1.00;;;20.50;86.80;;;;;;5054325;28;20099;-68
2022/08/27 11:52:31;;;;;;;4.95;0.80;;;20.50;87.10;;;;;;5054846;28;20041;-68
2022/08/27 11:55:23;;;;;;;5.55;1.08;;;20.50;87.30;;;;;;5054765;28;20041;-67
2022/08/27 11:58:22;;;;;;;3.35;1.02;;;20.30;86.50;;;;;;5053311;28;20112;-68
2022/08/27 12:00:52;;;;;;;3.83;1.00;;;20.30;87.30;;;;;;5053160;28;20041;-68
2022/08/27 12:03:17;;;;;;;5.40;0.98;;;20.40;87.30;;;;;;5054557;28;20095;-68
2022/08/27 12:06:09;;;;;;;5.32;0.98;;;20.60;87.30;;;;;;5054569;28;20076;-68
2022/08/27 12:08:35;;;;;;;5.32;0.98;;;20.80;88.00;;;;;;5053070;28;20041;-68
2022/08/27 12:11:18;;;;;;;4.30;1.50;;;20.80;88.80;;;;;;5053972;28;20036;-67
2022/08/27 12:13:44;;;;;;;7.25;1.30;;;20.70;87.90;;;;;;5054428;28;20041;-68
2022/08/27 12:16:48;;;;;;;5.45;1.30;;;20.70;88.00;;;;;;5052940;28;20040;-68
2022/08/27 12:19:32;;;;;;;11.95;1.50;;;20.50;87.40;;;;;;5052763;28;20344;-68
2022/08/27 12:25:26;;;;;;;4.15;0.95;;;20.70;88.70;;;;;;5053090;28;20041;-68
2022/08/27 12:28:02;;;;;;;6.10;1.27;;;20.70;89.60;;;;;;5052665;28;20045;-68
2022/08/27 12:30:33;;;;;;;4.43;1.27;;;20.90;88.50;;;;;;5053916;28;20040;-69
2022/08/27 12:33:09;;;;;;;5.07;0.95;;;20.80;87.50;;;;;;5036325;28;20112;-69
2022/08/27 12:35:45;;;;;;;6.57;1.40;;;20.60;86.70;;;;;;5052684;28;20395;-69
2022/08/27 12:38:48;;;;;;;6.35;1.33;;;20.70;86.80;;;;;;5054048;28;20495;-69
2022/08/27 12:41:44;;;;;;;4.80;1.08;;;20.70;85.00;;;;;;5011479;28;20041;-70
2022/08/27 12:44:12;;;;;;;5.10;1.00;;;20.80;84.90;;;;;;5041041;28;20055;-69
2022/08/27 12:47:07;;;;;;;6.78;1.58;;;20.80;85.80;;;;;;5053963;28;20055;-69
2022/08/27 12:49:47;;;;;;;8.63;1.63;;;20.80;85.40;;;;;;5052774;28;20426;-70
2022/08/27 12:52:33;;;;;;;5.53;1.08;;;20.90;86.50;;;;;;5053686;28;20075;-70
2022/08/27 12:55:02;;;;;;;3.55;0.80;;;21.10;85.30;;;;;;5053681;28;20167;-69
2022/08/27 12:58:00;;;;;;;7.47;1.30;;;21.00;85.30;;;;;;5052294;28;20116;-69
2022/08/27 13:00:34;;;;;;;5.03;1.25;;;21.00;85.30;;;;;;5053292;28;20449;-69
2022/08/27 13:03:30;;;;;;;5.13;1.05;;;21.20;87.50;;;;;;5052107;28;20388;-69
2022/08/27 13:05:56;;;;;;;7.15;1.60;;;21.30;86.50;;;;;;5052246;28;20075;-69
2022/08/27 13:08:33;;;;;;;9.82;2.15;;;21.10;84.90;;;;;;5052179;28;20041;-69
2022/08/27 13:11:16;;;;;;;5.20;0.98;;;21.00;84.60;;;;;;5053093;28;20045;-69
2022/08/27 13:13:42;;;;;;;7.25;1.23;;;21.00;84.60;;;;;;5052463;28;20402;-69
2022/08/27 13:16:07;;;;;;;6.35;0.98;;;21.00;84.00;;;;;;5051780;28;20044;-69
2022/08/27 13:18:35;;;;;;;5.80;0.80;;;21.00;84.30;;;;;;5053149;28;20041;-69